»·PEaware :: HYDRA60 KDLF-KMAF

HYDRA60 :: KDLF-KMAF

FLIGHT INFORMATION

Flight Status: Arrived
Operator: Unknown
More flights by this operator :: More flights under this callsign
Pilot: 47th FTW Laughlin (28783)
Aircraft: BEECH AIRCRAFT T-6A TEXAN
(TEX2)
More flights by this aircraft type
Origin: KDLF Laughlin AFB
United States
Destination: KMAF Midland Intl
United States
More flights between these airports :: More routes between these airports
Route: +JCT V68 JOKES
File this flight plan on PilotEdge
Remarks:
Altitude:
(Current/Filed)
0ft
Speed:
(Current/Filed)
0kts
Departed: 24-Jul-20 10:09 AM
Arrived: 24-Jul-20 11:02 AM
Distance/Time
Traveled:
171nm/0:53
Distance/Time
To Go:
Arrived

Flight Plot

Page will automatically refresh every two minutes.

Flight plan parsing failed; only flown route is shown


Map Options




Map Legend


Flown Route
Filed Route
Departure Airport
Arrival Airport
Navaid (VOR, NDB)
Fix

Horizontal Profiles

Position Reports

Time Latitude Longitude Heading Altitude Ground
Speed
24-Jul-20 10:07 29.324683 -100.675617 33 8418ft 180kts
24-Jul-20 10:08 29.366208 -100.642412 32 12026ft 190kts
24-Jul-20 10:09 29.412477 -100.612300 26 15614ft 201kts
24-Jul-20 10:10 29.471714 -100.577948 29 16053ft 248kts
24-Jul-20 10:11 29.529366 -100.535320 36 15910ft 245kts
24-Jul-20 10:12 29.585622 -100.489607 36 16068ft 253kts
24-Jul-20 10:13 29.646675 -100.447054 29 16028ft 261kts
24-Jul-20 10:14 29.709678 -100.404787 32 15979ft 261kts
24-Jul-20 10:15 29.822511 -100.319331 36 15860ft 262kts
24-Jul-20 10:16 30.013093 -100.192326 26 16014ft 261kts
24-Jul-20 10:17 30.098528 -100.143672 26 15986ft 260kts
24-Jul-20 10:18 30.163775 -100.106369 27 16090ft 259kts
24-Jul-20 10:19 30.233002 -100.102813 340 15951ft 262kts
24-Jul-20 10:20 30.432263 -100.179780 345 15872ft 261kts
24-Jul-20 10:21 30.653751 -100.237321 351 15815ft 261kts
24-Jul-20 10:22 30.874427 -100.295225 342 15886ft 260kts
24-Jul-20 10:23 31.058940 -100.359175 347 15817ft 265kts
24-Jul-20 10:24 31.127369 -100.378787 345 15915ft 262kts
24-Jul-20 10:25 31.196796 -100.399053 348 15921ft 260kts
24-Jul-20 10:26 31.265616 -100.420683 344 15955ft 261kts
24-Jul-20 10:27 31.334669 -100.442127 347 15850ft 264kts
24-Jul-20 10:28 31.395127 -100.478572 291 16055ft 256kts
24-Jul-20 10:29 31.411633 -100.558797 290 16073ft 260kts
24-Jul-20 10:30 31.438434 -100.636870 293 15891ft 266kts
24-Jul-20 10:31 31.466112 -100.715214 293 15875ft 262kts
24-Jul-20 10:32 31.494822 -100.792237 293 15875ft 261kts
24-Jul-20 10:33 31.521793 -100.869508 290 15986ft 258kts
24-Jul-20 10:34 31.546317 -100.947840 290 15981ft 261kts
24-Jul-20 10:35 31.573708 -101.025427 294 15931ft 263kts
24-Jul-20 10:36 31.603669 -101.101967 294 15868ft 264kts
24-Jul-20 10:37 31.632367 -101.178304 291 15960ft 264kts
24-Jul-20 10:38 31.659670 -101.256533 294 15997ft 260kts
24-Jul-20 10:39 31.688985 -101.332432 295 15785ft 259kts
24-Jul-20 10:40 31.717517 -101.408153 296 15270ft 258kts
24-Jul-20 10:41 31.746690 -101.482410 295 13551ft 255kts
24-Jul-20 10:42 31.771541 -101.549135 293 12146ft 243kts
24-Jul-20 10:43 31.797184 -101.620564 292 10441ft 237kts
24-Jul-20 10:44 31.821895 -101.692341 295 9874ft 241kts
24-Jul-20 10:45 31.849635 -101.761182 295 9169ft 232kts
24-Jul-20 10:46 31.876921 -101.827064 296 7138ft 228kts
24-Jul-20 10:47 31.899808 -101.894142 293 5842ft 226kts
24-Jul-20 10:48 31.924155 -101.959963 296 5791ft 222kts
24-Jul-20 10:49 31.946212 -102.025592 292 5810ft 219kts
24-Jul-20 10:50 31.973006 -102.088193 295 5888ft 216kts
24-Jul-20 10:51 31.994897 -102.153975 293 5818ft 220kts
24-Jul-20 10:52 32.021688 -102.216635 298 4866ft 217kts
24-Jul-20 10:53 32.048564 -102.278736 297 4864ft 215kts
24-Jul-20 10:54 32.072037 -102.341946 270 4832ft 215kts
24-Jul-20 10:55 32.028577 -102.380220 202 4818ft 198kts
24-Jul-20 10:56 31.995783 -102.347862 111 4757ft 157kts
24-Jul-20 10:57 31.983173 -102.309151 116 4559ft 117kts
24-Jul-20 10:58 31.969187 -102.275323 112 4038ft 124kts
24-Jul-20 10:59 31.956229 -102.239015 113 3321ft 120kts
24-Jul-20 11:00 31.943923 -102.206358 114 2875ft 67kts
24-Jul-20 11:02 31.940159 -102.199418 168 2875ft 17kts
24-Jul-20 11:03 31.938894 -102.199325 177 2875ft 9kts
24-Jul-20 11:04 31.938252 -102.202366 270 2875ft 11kts
24-Jul-20 11:05 31.938217 -102.204750 264 2875ft 0kts

Navigation Log

Ident Type
Flight plan parsing failed, navigation log unavailable